createdAt,value
2019-06-08T00:00:00.498Z,54.62
2019-06-08T00:04:54.451Z,53.94
2019-06-08T00:09:48.458Z,52.30
2019-06-08T00:14:42.458Z,51.80
2019-06-08T00:19:36.408Z,50.72
2019-06-08T00:24:30.500Z,49.91
2019-06-08T00:29:24.654Z,50.39
2019-06-08T00:34:18.793Z,51.00
2019-06-08T00:39:13.271Z,51.01
2019-06-08T00:44:07.246Z,52.12
2019-06-08T00:49:01.273Z,53.38
2019-06-08T00:53:55.350Z,52.82
2019-06-08T00:58:49.322Z,51.42
2019-06-08T01:03:43.289Z,50.09
2019-06-08T01:08:37.248Z,49.19
2019-06-08T01:13:31.240Z,49.28
2019-06-08T01:18:25.909Z,49.81
2019-06-08T01:23:19.852Z,50.02
2019-06-08T01:28:13.797Z,49.38
2019-06-08T01:33:07.855Z,49.08
2019-06-08T01:38:01.818Z,49.81
2019-06-08T01:42:55.871Z,49.07
2019-06-08T01:47:49.835Z,48.81
2019-06-08T01:52:43.799Z,48.69
2019-06-08T01:57:37.751Z,48.37
2019-06-08T02:02:32.080Z,48.64
2019-06-08T02:07:26.367Z,49.10
2019-06-08T02:12:20.449Z,49.79
2019-06-08T02:17:14.415Z,49.69
2019-06-08T02:22:08.372Z,49.49
2019-06-08T02:27:02.547Z,49.66
2019-06-08T02:31:56.506Z,49.45
2019-06-08T02:36:50.556Z,49.43
2019-06-08T02:41:44.720Z,49.72
2019-06-08T02:46:40.433Z,49.69
2019-06-08T02:51:36.450Z,49.89
2019-06-08T02:56:31.985Z,50.20
2019-06-08T03:01:26.190Z,50.56
2019-06-08T03:06:21.148Z,50.43
2019-06-08T03:11:17.165Z,50.37
2019-06-08T03:16:11.121Z,50.22
2019-06-08T03:21:05.063Z,50.01
2019-06-08T03:25:59.074Z,50.73
2019-06-08T03:30:54.901Z,51.20
2019-06-08T03:35:57.191Z,51.38
2019-06-08T03:40:45.305Z,50.92
2019-06-08T03:45:40.793Z,51.25
2019-06-08T03:50:35.938Z,50.93
2019-06-08T03:55:31.191Z,50.51
2019-06-08T04:00:25.237Z,51.03
2019-06-08T04:05:19.322Z,50.31
2019-06-08T04:10:13.725Z,49.60
2019-06-08T04:15:08.080Z,50.09
2019-06-08T04:20:10.960Z,50.15
2019-06-08T04:25:01.217Z,49.85
2019-06-08T04:29:55.183Z,50.14
2019-06-08T04:34:50.033Z,50.18
2019-06-08T04:39:44.570Z,50.34
2019-06-08T04:44:40.483Z,50.32
2019-06-08T04:49:34.605Z,50.81
2019-06-08T04:54:28.669Z,51.01
2019-06-08T04:59:22.616Z,50.55
2019-06-08T05:04:16.577Z,50.75
2019-06-08T05:09:10.525Z,51.02
2019-06-08T05:14:04.692Z,50.56
2019-06-08T05:18:58.657Z,50.90
2019-06-08T05:23:58.533Z,49.91
2019-06-08T05:28:49.518Z,50.19
2019-06-08T05:33:43.697Z,49.91
2019-06-08T05:38:37.675Z,48.99
2019-06-08T05:43:31.651Z,48.61
2019-06-08T05:48:25.734Z,47.78
2019-06-08T05:53:19.764Z,47.40
2019-06-08T05:58:13.845Z,46.79
2019-06-08T06:03:08.176Z,47.87
2019-06-08T06:08:02.301Z,48.16
2019-06-08T06:12:56.378Z,47.95
2019-06-08T06:17:51.568Z,47.97
2019-06-08T06:22:45.890Z,47.89
2019-06-08T06:27:41.463Z,48.16
2019-06-08T06:32:35.539Z,48.23
2019-06-08T06:37:29.505Z,47.60
2019-06-08T06:42:24.982Z,46.73
2019-06-08T06:47:19.453Z,46.68
2019-06-08T06:52:13.412Z,47.66
2019-06-08T06:57:07.369Z,48.22
2019-06-08T07:02:01.644Z,47.32
2019-06-08T07:06:55.614Z,46.76
2019-06-08T07:11:50.885Z,46.74
2019-06-08T07:16:45.816Z,46.14
2019-06-08T07:21:42.092Z,46.87
2019-06-08T07:26:35.734Z,47.99
2019-06-08T07:31:29.688Z,49.78
2019-06-08T07:36:23.761Z,48.94
2019-06-08T07:41:17.729Z,46.78
2019-06-08T07:46:11.721Z,45.39
2019-06-08T07:51:05.690Z,45.94
2019-06-08T07:55:59.848Z,45.24
2019-06-08T08:00:54.939Z,45.24
2019-06-08T08:05:50.356Z,45.09
2019-06-08T08:10:44.390Z,44.87
2019-06-08T08:15:38.436Z,45.40
2019-06-08T08:20:32.420Z,45.12
2019-06-08T08:25:28.174Z,45.42
2019-06-08T08:30:22.487Z,44.95
2019-06-08T08:35:18.503Z,44.47
2019-06-08T08:40:12.433Z,44.63
2019-06-08T08:45:08.647Z,43.98
2019-06-08T08:50:04.220Z,45.49
2019-06-08T08:55:00.420Z,45.47
2019-06-08T08:59:56.110Z,45.24
2019-06-08T09:04:50.661Z,44.06
2019-06-08T09:09:48.051Z,44.68
2019-06-08T09:14:42.017Z,45.07
2019-06-08T09:19:38.175Z,44.25
2019-06-08T09:24:32.121Z,43.36
2019-06-08T09:29:28.746Z,40.84
2019-06-08T09:34:22.245Z,42.23
2019-06-08T09:41:15.569Z,42.22
2019-06-08T09:46:09.771Z,42.04
2019-06-08T09:51:05.645Z,42.70
2019-06-08T09:56:03.907Z,42.53
2019-06-08T10:00:57.205Z,41.14
2019-06-08T10:05:51.573Z,41.56
2019-06-08T10:10:48.224Z,41.65
2019-06-08T10:15:41.613Z,40.87
2019-06-08T10:20:38.243Z,40.30
2019-06-08T10:25:31.453Z,40.95
2019-06-08T10:30:25.413Z,41.60
2019-06-08T10:35:21.088Z,41.42
2019-06-08T10:40:18.690Z,41.24
2019-06-08T10:45:15.056Z,40.63
2019-06-08T10:50:15.423Z,41.13
2019-06-08T10:55:10.415Z,40.42
2019-06-08T11:00:17.851Z,38.97
2019-06-08T11:05:09.170Z,37.88
2019-06-08T11:10:01.891Z,35.93
2019-06-08T11:14:57.975Z,35.33
2019-06-08T11:19:51.901Z,37.06
2019-06-08T11:24:48.409Z,37.53
2019-06-08T11:29:41.854Z,35.07
2019-06-08T11:34:37.708Z,33.00
2019-06-08T11:39:31.832Z,31.71
2019-06-08T11:44:27.610Z,34.46
2019-06-08T11:49:21.806Z,38.32
2019-06-08T11:54:32.031Z,38.68
2019-06-08T11:59:14.320Z,38.13
2019-06-08T12:04:07.956Z,33.89
2019-06-08T12:09:02.706Z,31.54
2019-06-08T12:13:58.502Z,35.68
2019-06-08T12:18:52.758Z,38.28
2019-06-08T12:23:46.740Z,38.73
2019-06-08T12:28:40.825Z,38.20
2019-06-08T12:33:34.820Z,37.11
2019-06-08T12:38:32.180Z,34.53
2019-06-08T12:43:24.786Z,36.36
2019-06-08T12:48:23.467Z,35.30
2019-06-08T12:53:18.237Z,32.65
2019-06-08T12:58:12.957Z,28.98
2019-06-08T13:03:08.594Z,29.92
2019-06-08T13:08:03.463Z,35.20
2019-06-08T13:12:58.404Z,36.53
2019-06-08T13:17:52.445Z,36.98
2019-06-08T13:22:48.234Z,29.76
2019-06-08T13:27:42.531Z,31.33
2019-06-08T13:32:38.253Z,34.47
2019-06-08T13:37:32.481Z,34.32
2019-06-08T13:42:27.924Z,33.13
2019-06-08T13:47:23.112Z,31.79
2019-06-08T13:52:19.021Z,31.54
2019-06-08T13:57:13.498Z,32.71
2019-06-08T14:02:07.526Z,34.03
2019-06-08T14:07:01.470Z,35.10
2019-06-08T14:11:57.611Z,37.45
2019-06-08T14:16:51.453Z,47.79
2019-06-08T14:21:47.601Z,45.61
2019-06-08T14:26:41.402Z,41.26
2019-06-08T14:31:37.949Z,37.13
2019-06-08T14:36:31.374Z,39.31
2019-06-08T14:41:27.061Z,31.51
2019-06-08T14:46:23.147Z,28.70
2019-06-08T14:51:18.592Z,34.70
2019-06-08T14:56:12.741Z,39.28
2019-06-08T15:01:07.905Z,69.15
2019-06-08T15:06:02.249Z,68.92
2019-06-08T15:10:58.208Z,63.15
2019-06-08T15:15:52.270Z,50.03
2019-06-08T15:20:48.104Z,37.22
2019-06-08T15:25:42.655Z,32.73
2019-06-08T15:30:38.042Z,30.46
2019-06-08T15:35:32.360Z,30.42
2019-06-08T15:40:27.682Z,29.37
2019-06-08T15:45:22.122Z,37.74
2019-06-08T15:50:18.014Z,40.88
2019-06-08T15:55:12.145Z,42.48
2019-06-08T16:00:09.649Z,41.54
2019-06-08T16:05:04.677Z,37.52
2019-06-08T16:09:58.747Z,36.70
2019-06-08T16:14:52.839Z,33.11
2019-06-08T16:19:46.817Z,33.26
2019-06-08T16:24:40.791Z,35.29
2019-06-08T16:29:35.151Z,35.47
2019-06-08T16:34:29.241Z,37.87
2019-06-08T16:39:23.189Z,40.91
2019-06-08T16:44:17.175Z,41.63
2019-06-08T16:49:11.262Z,41.83
2019-06-08T16:54:05.330Z,43.39
2019-06-08T16:58:59.289Z,47.83
2019-06-08T17:03:53.295Z,49.48
2019-06-08T17:08:47.371Z,49.96
2019-06-08T17:13:41.409Z,49.25
2019-06-08T17:18:36.254Z,49.76
2019-06-08T17:23:30.716Z,48.61
2019-06-08T17:28:24.786Z,48.31
2019-06-08T17:33:18.772Z,46.82
2019-06-08T17:38:12.863Z,45.87
2019-06-08T17:43:07.344Z,45.43
2019-06-08T17:48:01.333Z,47.47
2019-06-08T17:52:55.413Z,48.15
2019-06-08T17:57:53.423Z,48.15
2019-06-08T18:02:45.478Z,48.42
2019-06-08T18:07:41.989Z,48.03
2019-06-08T18:12:38.663Z,48.23
2019-06-08T18:17:32.226Z,48.25
2019-06-08T18:22:27.146Z,49.64
2019-06-08T18:27:21.278Z,49.54
2019-06-08T18:32:15.337Z,49.27
2019-06-08T18:37:09.496Z,49.45
2019-06-08T18:42:03.479Z,50.26
2019-06-08T18:46:57.737Z,50.92
2019-06-08T18:51:52.036Z,50.90
2019-06-08T18:56:48.701Z,51.69
2019-06-08T19:01:43.217Z,51.42
2019-06-08T19:06:39.344Z,52.51
2019-06-08T19:11:33.318Z,53.31
2019-06-08T19:16:28.486Z,53.73
2019-06-08T19:21:22.645Z,53.57
2019-06-08T19:26:17.194Z,54.21
2019-06-08T19:31:11.296Z,56.10
2019-06-08T19:36:07.640Z,56.82
2019-06-08T19:41:01.378Z,56.45
2019-06-08T19:45:57.829Z,54.14
2019-06-08T19:50:54.110Z,52.45
2019-06-08T19:55:52.013Z,51.98
2019-06-08T20:00:44.259Z,52.37
2019-06-08T20:05:38.335Z,53.64
2019-06-08T20:10:32.318Z,53.48
2019-06-08T20:15:26.341Z,53.88
2019-06-08T20:20:20.391Z,54.74
2019-06-08T20:25:17.192Z,55.34
2019-06-08T20:30:12.246Z,55.75
2019-06-08T20:35:08.032Z,56.81
2019-06-08T20:40:11.159Z,58.95
2019-06-08T20:44:59.637Z,61.51
2019-06-08T20:49:53.624Z,63.20
2019-06-08T20:54:49.275Z,64.23
2019-06-08T20:59:43.650Z,65.95
2019-06-08T21:04:38.329Z,66.83
2019-06-08T21:09:32.681Z,67.68
2019-06-08T21:14:27.344Z,68.40
2019-06-08T21:19:21.619Z,69.16
2019-06-08T21:24:17.347Z,69.81
2019-06-08T21:29:11.875Z,69.90
2019-06-08T21:34:07.387Z,70.35
2019-06-08T21:39:02.611Z,70.69
2019-06-08T21:44:00.776Z,71.05
2019-06-08T21:48:53.499Z,71.52
2019-06-08T21:53:50.060Z,71.57
2019-06-08T21:58:47.111Z,71.62
2019-06-08T22:03:40.619Z,71.67
2019-06-08T22:08:34.623Z,72.14
2019-06-08T22:13:28.903Z,71.84
2019-06-08T22:18:22.860Z,71.40
2019-06-08T22:23:18.018Z,71.77
2019-06-08T22:28:12.134Z,71.98
2019-06-08T22:33:06.125Z,72.12
2019-06-08T22:38:00.935Z,72.18
2019-06-08T22:42:57.780Z,72.31
2019-06-08T22:47:52.913Z,72.59
2019-06-08T22:52:47.693Z,72.79
2019-06-08T22:57:41.765Z,73.03
2019-06-08T23:02:38.249Z,72.73
2019-06-08T23:07:32.806Z,72.69
2019-06-08T23:12:28.726Z,73.09
2019-06-08T23:17:22.820Z,72.79
2019-06-08T23:22:17.733Z,72.69
2019-06-08T23:27:11.912Z,72.84
2019-06-08T23:32:09.530Z,72.73
2019-06-08T23:37:04.509Z,72.47
2019-06-08T23:41:57.709Z,72.84
2019-06-08T23:46:52.013Z,72.26
2019-06-08T23:51:47.542Z,73.01
2019-06-08T23:56:41.639Z,73.69
